Time;durP1;ratioP1;P1;durP2;ratioP2;P2;SDS_P1;SDS_P2;PMS_P1;PMS_P2;Temp;Humidity;BMP_temperature;BMP_pressure;BME280_temperature;BME280_humidity;BME280_pressure;Samples;Min_cycle;Max_cycle;Signal;HPM_P1;HPM_P2
2022/10/30 00:00:13;;;;;;;12.23;5.07;;;14.80;99.90;;;;;;6190619;23;20160;-87
2022/10/30 00:02:39;;;;;;;15.07;5.10;;;14.70;99.90;;;;;;6190820;23;20240;-87
2022/10/30 00:05:05;;;;;;;10.13;4.47;;;14.70;99.90;;;;;;6193609;23;20192;-89
2022/10/30 00:07:31;;;;;;;13.33;4.73;;;14.70;99.90;;;;;;6190903;23;20160;-85
2022/10/30 00:09:56;;;;;;;13.13;5.00;;;14.60;99.90;;;;;;6190628;23;20199;-88
2022/10/30 00:12:22;;;;;;;9.97;4.70;;;14.60;99.90;;;;;;6190307;23;20163;-86
2022/10/30 00:14:47;;;;;;;11.40;5.20;;;14.60;99.90;;;;;;6190138;23;20510;-85
2022/10/30 00:17:13;;;;;;;11.90;4.47;;;14.40;99.90;;;;;;6190136;23;20187;-85
2022/10/30 00:19:39;;;;;;;11.77;4.70;;;15.40;99.90;;;;;;6190040;23;20284;-86
2022/10/30 00:22:04;;;;;;;12.80;5.60;;;14.40;99.90;;;;;;6190167;23;20472;-86
2022/10/30 00:24:30;;;;;;;15.50;5.40;;;14.40;99.90;;;;;;6189842;23;20505;-87
2022/10/30 00:26:55;;;;;;;14.40;4.87;;;14.20;99.90;;;;;;6190217;23;20180;-86
2022/10/30 00:29:23;;;;;;;11.67;5.33;;;14.30;99.90;;;;;;6190045;23;20160;-86
2022/10/30 00:31:49;;;;;;;14.37;5.27;;;14.30;99.90;;;;;;6191628;23;20160;-86
2022/10/30 00:34:15;;;;;;;11.83;5.47;;;14.30;99.90;;;;;;6190163;23;20190;-86
2022/10/30 00:36:41;;;;;;;10.37;4.93;;;14.30;99.90;;;;;;6192570;23;20192;-89
2022/10/30 00:39:06;;;;;;;9.70;4.67;;;14.50;99.90;;;;;;6191648;23;20167;-87
2022/10/30 00:41:32;;;;;;;12.10;5.20;;;14.20;99.90;;;;;;6192177;23;20184;-87
2022/10/30 00:43:57;;;;;;;11.20;4.77;;;14.20;99.90;;;;;;6191803;23;20195;-87
2022/10/30 00:46:31;;;;;;;12.30;4.97;;;14.20;99.90;;;;;;6190582;23;20175;-86
2022/10/30 00:49:05;;;;;;;11.03;4.43;;;14.10;99.90;;;;;;6216400;23;20216;-86
2022/10/30 00:51:32;;;;;;;13.53;4.93;;;14.10;99.90;;;;;;6190837;23;20145;-85
2022/10/30 00:54:02;;;;;;;14.70;5.53;;;14.10;99.90;;;;;;6189634;23;20179;-86
2022/10/30 00:56:28;;;;;;;9.57;5.37;;;14.70;99.90;;;;;;6189770;23;20164;-86
2022/10/30 00:59:02;;;;;;;10.17;4.77;;;14.00;99.90;;;;;;6189978;23;20160;-87
2022/10/30 01:01:31;;;;;;;14.57;5.43;;;14.00;99.90;;;;;;6189898;23;20290;-87
2022/10/30 01:03:59;;;;;;;10.07;4.90;;;13.90;99.90;;;;;;6189492;23;20196;-87
2022/10/30 01:06:27;;;;;;;16.70;5.77;;;13.80;99.90;;;;;;6189782;23;20226;-85
2022/10/30 01:08:53;;;;;;;10.90;4.97;;;13.90;99.90;;;;;;6189770;23;20202;-86
2022/10/30 01:11:19;;;;;;;12.30;5.20;;;13.90;99.90;;;;;;6189697;23;20262;-86
2022/10/30 01:13:48;;;;;;;10.73;5.20;;;13.90;99.90;;;;;;6189686;23;20211;-87
2022/10/30 01:16:38;;;;;;;8.43;4.70;;;14.00;99.90;;;;;;6189807;23;20203;-86
2022/10/30 01:19:19;;;;;;;13.27;4.53;;;13.80;99.90;;;;;;6189704;23;20699;-87
2022/10/30 01:22:15;;;;;;;11.10;5.37;;;13.80;99.90;;;;;;6189461;23;20160;-87
2022/10/30 01:24:59;;;;;;;11.23;5.13;;;13.80;99.90;;;;;;6189357;23;20195;-86
2022/10/30 01:27:43;;;;;;;13.77;5.80;;;13.80;99.90;;;;;;6189541;23;20156;-88
2022/10/30 01:30:22;;;;;;;14.43;5.13;;;13.60;99.90;;;;;;6189406;23;20160;-86
2022/10/30 01:33:03;;;;;;;14.77;5.40;;;13.70;99.90;;;;;;6189885;23;20152;-86
2022/10/30 01:36:00;;;;;;;8.10;4.77;;;13.70;99.90;;;;;;6189525;23;20210;-86
2022/10/30 01:38:38;;;;;;;16.50;5.20;;;13.70;99.90;;;;;;6216395;23;20152;-87
2022/10/30 01:41:04;;;;;;;11.50;5.13;;;13.70;99.90;;;;;;6189618;23;20158;-87
2022/10/30 01:43:31;;;;;;;13.50;5.13;;;13.70;99.90;;;;;;6216330;23;20270;-87
2022/10/30 01:46:22;;;;;;;12.50;5.77;;;13.70;99.90;;;;;;6189764;23;20160;-86
2022/10/30 01:49:24;;;;;;;11.70;4.93;;;13.60;99.90;;;;;;6191719;23;20581;-87
2022/10/30 01:52:11;;;;;;;15.33;5.47;;;13.60;99.90;;;;;;6218380;23;20625;-87
2022/10/30 01:54:52;;;;;;;12.20;5.03;;;13.60;99.90;;;;;;6191820;23;20180;-87
2022/10/30 01:57:34;;;;;;;11.53;5.80;;;13.60;99.90;;;;;;6191788;23;20156;-85
2022/10/30 02:00:05;;;;;;;13.07;5.87;;;13.50;99.90;;;;;;6191711;23;20160;-86
2022/10/30 02:02:31;;;;;;;10.03;4.80;;;13.50;99.90;;;;;;6191271;23;20160;-83
2022/10/30 02:04:57;;;;;;;10.13;5.33;;;13.50;99.90;;;;;;6191226;23;20199;-84
2022/10/30 02:07:23;;;;;;;16.60;5.60;;;13.50;99.90;;;;;;6191361;23;20152;-84
2022/10/30 02:09:51;;;;;;;14.27;5.83;;;13.40;99.90;;;;;;6191398;23;20280;-83
2022/10/30 02:12:18;;;;;;;18.33;5.77;;;13.30;99.90;;;;;;6217751;23;20175;-85
2022/10/30 02:14:46;;;;;;;11.60;5.30;;;13.30;99.90;;;;;;6191165;23;20626;-84
2022/10/30 02:17:13;;;;;;;10.50;4.97;;;13.40;99.90;;;;;;6191280;23;20165;-84
2022/10/30 02:19:38;;;;;;;8.73;4.97;;;13.20;99.90;;;;;;6191077;23;20259;-83
2022/10/30 02:22:04;;;;;;;13.53;5.73;;;13.10;99.90;;;;;;6191106;23;20222;-84
2022/10/30 02:24:31;;;;;;;11.67;5.20;;;13.20;99.90;;;;;;6190786;23;20202;-84
2022/10/30 02:26:56;;;;;;;11.73;5.70;;;13.00;99.90;;;;;;6191180;23;20152;-84
2022/10/30 02:29:22;;;;;;;14.20;5.77;;;13.00;99.90;;;;;;6191122;23;20218;-83
2022/10/30 02:31:48;;;;;;;8.67;5.07;;;12.90;99.90;;;;;;6191213;23;20157;-83
2022/10/30 02:34:14;;;;;;;11.37;5.10;;;12.90;99.90;;;;;;6191110;23;20180;-84
2022/10/30 02:36:40;;;;;;;14.27;4.97;;;13.50;99.90;;;;;;6191036;23;20164;-84
2022/10/30 02:39:06;;;;;;;10.70;5.13;;;12.90;99.90;;;;;;6192225;23;20160;-85
2022/10/30 02:41:32;;;;;;;10.17;4.80;;;12.80;99.90;;;;;;6191026;23;20171;-85
2022/10/30 02:43:57;;;;;;;10.87;4.97;;;12.70;99.90;;;;;;6191055;23;20246;-83
2022/10/30 02:46:23;;;;;;;16.57;5.20;;;13.40;99.90;;;;;;6191025;23;20159;-83
2022/10/30 02:48:49;;;;;;;12.47;5.43;;;12.60;99.90;;;;;;6190947;23;20152;-84
2022/10/30 02:51:14;;;;;;;16.77;5.43;;;12.70;99.90;;;;;;6217293;23;20145;-85
2022/10/30 02:53:40;;;;;;;13.73;4.93;;;12.80;99.90;;;;;;6190681;23;20188;-84
2022/10/30 02:56:07;;;;;;;11.73;5.23;;;12.60;99.90;;;;;;6217284;23;20156;-84
2022/10/30 02:58:34;;;;;;;13.10;5.60;;;12.60;99.90;;;;;;6190281;23;20163;-83
2022/10/30 03:01:10;;;;;;;11.07;4.83;;;12.50;99.90;;;;;;6190626;23;20661;-84
2022/10/30 03:03:36;;;;;;;13.07;5.57;;;12.40;99.90;;;;;;6190442;23;20223;-84
2022/10/30 03:06:03;;;;;;;8.50;4.53;;;12.40;99.90;;;;;;6190715;23;20163;-84
2022/10/30 03:08:29;;;;;;;16.30;5.47;;;12.40;99.90;;;;;;6190636;23;20156;-83
2022/10/30 03:11:06;;;;;;;13.87;5.10;;;12.40;99.90;;;;;;6190565;23;20163;-83
2022/10/30 03:13:34;;;;;;;13.40;5.47;;;12.30;99.90;;;;;;6191293;23;20180;-84
2022/10/30 03:16:09;;;;;;;10.57;4.90;;;12.80;99.90;;;;;;6190756;23;20164;-85
2022/10/30 03:18:35;;;;;;;10.17;4.90;;;12.30;99.90;;;;;;6190819;23;20183;-83
2022/10/30 03:21:06;;;;;;;14.17;5.00;;;12.30;99.90;;;;;;6190714;23;20599;-83
2022/10/30 03:23:32;;;;;;;13.70;5.17;;;12.20;99.90;;;;;;6190360;23;20192;-84
2022/10/30 03:25:58;;;;;;;11.10;4.93;;;12.40;99.90;;;;;;6217040;23;20168;-84
2022/10/30 03:28:28;;;;;;;11.63;5.23;;;12.10;99.90;;;;;;6190505;23;20156;-84
2022/10/30 03:31:02;;;;;;;11.10;5.33;;;12.10;99.90;;;;;;6190807;23;20164;-84
2022/10/30 03:33:28;;;;;;;14.50;5.10;;;12.10;99.90;;;;;;6190494;23;20180;-84
2022/10/30 03:35:54;;;;;;;10.03;5.17;;;12.80;99.90;;;;;;6190384;23;20172;-84
2022/10/30 03:38:19;;;;;;;11.93;5.73;;;12.00;99.90;;;;;;6190357;23;20164;-84
2022/10/30 03:40:45;;;;;;;12.77;5.57;;;12.00;99.90;;;;;;6190520;23;20167;-83
2022/10/30 03:43:10;;;;;;;12.17;5.03;;;12.60;99.90;;;;;;6190275;23;20162;-84
2022/10/30 03:45:36;;;;;;;9.07;5.10;;;12.00;99.90;;;;;;6190381;23;20166;-85
2022/10/30 03:48:03;;;;;;;10.80;4.77;;;12.90;99.90;;;;;;6190430;23;20163;-85
2022/10/30 03:50:29;;;;;;;10.00;5.30;;;11.80;99.90;;;;;;6190327;23;20267;-84
2022/10/30 03:52:56;;;;;;;11.03;5.17;;;12.60;99.90;;;;;;6190211;23;20156;-86
2022/10/30 03:55:22;;;;;;;10.33;5.40;;;11.80;99.90;;;;;;6216926;23;20295;-83
2022/10/30 03:57:48;;;;;;;13.90;5.23;;;12.20;99.90;;;;;;6190153;23;20292;-83
2022/10/30 04:00:15;;;;;;;14.83;5.20;;;11.70;99.90;;;;;;6190339;23;20596;-83
2022/10/30 04:02:49;;;;;;;14.00;5.87;;;11.80;99.90;;;;;;6190353;23;20160;-85
2022/10/30 04:05:16;;;;;;;12.90;5.37;;;11.80;99.90;;;;;;6189910;23;20292;-85
2022/10/30 04:07:42;;;;;;;11.50;5.60;;;12.60;99.90;;;;;;6190539;23;20156;-83
2022/10/30 04:10:08;;;;;;;9.43;5.30;;;11.90;99.90;;;;;;6189724;23;20163;-85
2022/10/30 04:12:34;;;;;;;11.77;5.70;;;11.60;99.90;;;;;;6190000;23;20591;-84
2022/10/30 04:14:59;;;;;;;13.37;4.77;;;11.50;99.90;;;;;;6190193;23;20191;-85
2022/10/30 04:17:25;;;;;;;11.47;5.53;;;11.70;99.90;;;;;;6216592;23;20576;-85
2022/10/30 04:19:50;;;;;;;9.90;5.27;;;11.60;99.90;;;;;;6189947;23;20164;-84
2022/10/30 04:22:16;;;;;;;10.00;5.50;;;11.50;99.90;;;;;;6189974;23;20251;-84
2022/10/30 04:24:42;;;;;;;14.27;5.43;;;11.50;99.90;;;;;;6189680;23;20196;-85
2022/10/30 04:27:07;;;;;;;9.33;5.63;;;11.50;99.90;;;;;;6190044;23;20179;-83
2022/10/30 04:29:33;;;;;;;12.73;5.37;;;12.00;99.90;;;;;;6216497;23;20160;-84
2022/10/30 04:31:58;;;;;;;12.97;5.80;;;11.40;99.90;;;;;;6189874;23;20160;-83
2022/10/30 04:34:24;;;;;;;12.40;5.10;;;11.80;99.90;;;;;;6189795;23;20184;-84
2022/10/30 04:36:49;;;;;;;11.20;4.77;;;11.70;99.90;;;;;;6189967;23;20164;-83
2022/10/30 04:39:15;;;;;;;7.73;4.70;;;11.40;99.90;;;;;;6189836;23;20164;-85
2022/10/30 04:41:40;;;;;;;12.50;5.07;;;11.40;99.90;;;;;;6189903;23;20170;-85
2022/10/30 04:44:06;;;;;;;14.23;5.33;;;11.60;99.90;;;;;;6189667;23;20267;-84
2022/10/30 04:46:32;;;;;;;13.87;5.53;;;11.40;99.90;;;;;;6189904;23;20152;-83
2022/10/30 04:48:57;;;;;;;14.13;5.43;;;11.40;99.90;;;;;;6189872;23;20152;-83
2022/10/30 04:51:23;;;;;;;9.53;5.10;;;11.40;99.90;;;;;;6189863;23;20587;-84
2022/10/30 04:53:49;;;;;;;10.83;5.77;;;11.30;99.90;;;;;;6189582;23;20627;-85
2022/10/30 04:56:15;;;;;;;12.77;5.53;;;11.30;99.90;;;;;;6189665;23;20160;-84
2022/10/30 04:58:41;;;;;;;11.50;5.73;;;11.30;99.90;;;;;;6216188;23;20160;-84
2022/10/30 05:01:06;;;;;;;9.73;5.37;;;11.20;99.90;;;;;;6190632;23;20661;-84
2022/10/30 05:03:33;;;;;;;10.03;5.53;;;11.30;99.90;;;;;;6189804;23;20238;-84
2022/10/30 05:06:02;;;;;;;8.07;5.20;;;11.40;99.90;;;;;;6192440;23;20191;-83
2022/10/30 05:08:28;;;;;;;14.83;5.70;;;11.50;99.90;;;;;;6216207;23;20580;-84
2022/10/30 05:10:53;;;;;;;9.50;5.83;;;11.30;99.90;;;;;;6216310;23;20186;-84
2022/10/30 05:13:19;;;;;;;12.90;5.87;;;11.20;99.90;;;;;;6189473;23;20254;-83
2022/10/30 05:15:45;;;;;;;13.77;5.23;;;11.20;99.90;;;;;;6190387;23;20152;-86
2022/10/30 05:18:10;;;;;;;12.57;5.57;;;11.20;99.90;;;;;;6216380;23;20183;-86
2022/10/30 05:20:36;;;;;;;8.03;5.67;;;11.20;99.90;;;;;;6189732;23;20247;-85
2022/10/30 05:23:02;;;;;;;10.90;5.57;;;11.20;99.90;;;;;;6215696;23;20152;-84
2022/10/30 05:25:27;;;;;;;16.40;6.10;;;11.10;99.90;;;;;;6189566;23;20622;-86
2022/10/30 05:28:01;;;;;;;17.90;6.13;;;11.10;99.90;;;;;;6190627;23;20579;-85
2022/10/30 05:30:32;;;;;;;11.87;6.07;;;11.10;99.90;;;;;;6189775;23;20538;-86
2022/10/30 05:33:03;;;;;;;9.60;5.57;;;11.20;99.90;;;;;;6189837;23;20160;-86
2022/10/30 05:35:31;;;;;;;13.47;5.40;;;11.00;99.90;;;;;;6189660;23;20159;-87
2022/10/30 05:38:00;;;;;;;9.67;5.30;;;11.10;99.90;;;;;;6216575;23;20147;-85
2022/10/30 05:40:26;;;;;;;13.70;5.63;;;11.00;99.90;;;;;;6189527;23;20171;-86
2022/10/30 05:42:52;;;;;;;9.77;5.70;;;11.10;99.90;;;;;;6189644;23;20160;-85
2022/10/30 05:45:18;;;;;;;9.13;5.10;;;11.10;99.90;;;;;;6216225;23;20186;-85
2022/10/30 05:47:57;;;;;;;8.77;4.83;;;11.00;99.90;;;;;;6189516;23;20188;-86
2022/10/30 05:50:24;;;;;;;16.63;5.80;;;11.10;99.90;;;;;;6189644;23;20155;-86
2022/10/30 05:52:53;;;;;;;11.17;4.90;;;11.00;99.90;;;;;;6189620;23;20552;-87
2022/10/30 05:55:18;;;;;;;12.27;5.47;;;11.00;99.90;;;;;;6189630;23;20176;-87
2022/10/30 05:57:44;;;;;;;11.13;5.73;;;10.80;99.90;;;;;;6189300;23;20187;-86
2022/10/30 06:00:10;;;;;;;12.83;5.70;;;10.90;99.90;;;;;;6189573;23;20183;-87
2022/10/30 06:02:36;;;;;;;13.10;5.27;;;11.00;99.90;;;;;;6189621;23;20168;-87
2022/10/30 06:05:01;;;;;;;10.27;5.47;;;10.90;99.90;;;;;;6215947;23;20215;-86
2022/10/30 06:07:27;;;;;;;9.93;4.77;;;10.90;99.90;;;;;;6189628;23;20160;-86
2022/10/30 06:09:52;;;;;;;12.17;5.60;;;10.90;99.90;;;;;;6189401;23;20158;-87
2022/10/30 06:12:18;;;;;;;9.33;5.57;;;11.10;99.90;;;;;;6216090;23;20587;-86
2022/10/30 06:14:43;;;;;;;15.70;5.87;;;10.80;99.90;;;;;;6189496;23;20187;-87
2022/10/30 06:17:09;;;;;;;11.57;6.20;;;11.40;99.90;;;;;;6189490;23;20164;-89
2022/10/30 06:19:34;;;;;;;10.50;5.70;;;10.80;99.90;;;;;;6189484;23;20160;-89
2022/10/30 06:22:00;;;;;;;13.47;5.97;;;10.90;99.90;;;;;;6189463;23;20167;-87
2022/10/30 06:24:25;;;;;;;9.97;5.50;;;10.80;99.90;;;;;;6188920;23;20220;-89
2022/10/30 06:26:51;;;;;;;9.27;5.43;;;10.80;99.90;;;;;;6189450;23;20183;-86
2022/10/30 06:29:16;;;;;;;8.47;5.20;;;10.70;99.90;;;;;;6189449;23;20153;-87
2022/10/30 06:31:42;;;;;;;10.80;5.23;;;10.70;99.90;;;;;;6216402;23;20164;-87
2022/10/30 06:34:08;;;;;;;11.43;5.83;;;10.70;99.90;;;;;;6190079;23;20187;-87
2022/10/30 06:36:33;;;;;;;9.40;5.03;;;10.80;99.90;;;;;;6191109;23;20167;-88
2022/10/30 06:38:59;;;;;;;8.53;5.60;;;11.20;99.90;;;;;;6191219;23;20537;-88
2022/10/30 06:41:24;;;;;;;12.60;5.80;;;11.00;99.90;;;;;;6191273;23;20505;-87
2022/10/30 06:43:50;;;;;;;11.00;5.43;;;10.60;99.90;;;;;;6190948;23;20199;-87
2022/10/30 06:46:15;;;;;;;11.50;6.43;;;10.50;99.90;;;;;;6191082;23;20192;-87
2022/10/30 06:48:41;;;;;;;9.97;6.10;;;10.60;99.90;;;;;;6217845;23;20144;-87
2022/10/30 06:51:06;;;;;;;10.43;5.40;;;10.80;99.90;;;;;;6217613;23;20156;-89
2022/10/30 06:53:32;;;;;;;8.73;5.60;;;10.90;99.90;;;;;;6190854;23;20194;-88
2022/10/30 06:56:00;;;;;;;20.83;6.30;;;10.60;99.90;;;;;;6217621;23;20152;-87
2022/10/30 06:58:26;;;;;;;10.67;5.67;;;10.60;99.90;;;;;;6191094;23;20155;-88
2022/10/30 07:00:52;;;;;;;15.87;6.23;;;10.90;99.90;;;;;;6190938;23;20160;-86
2022/10/30 07:03:19;;;;;;;12.70;6.53;;;10.60;99.90;;;;;;6191273;23;20255;-87
2022/10/30 07:05:44;;;;;;;11.57;6.20;;;10.70;99.90;;;;;;6190969;23;20209;-87
2022/10/30 07:08:10;;;;;;;13.20;6.53;;;10.80;99.90;;;;;;6190963;23;20156;-85
2022/10/30 07:10:36;;;;;;;11.27;5.70;;;10.80;99.90;;;;;;6190863;23;20166;-86
2022/10/30 07:13:01;;;;;;;11.73;5.67;;;10.90;99.90;;;;;;6190891;23;20557;-84
2022/10/30 07:15:27;;;;;;;11.27;6.47;;;11.20;99.90;;;;;;6190735;23;20186;-84
2022/10/30 07:17:57;;;;;;;11.93;6.20;;;11.10;99.90;;;;;;6217301;23;20160;-85
2022/10/30 07:20:24;;;;;;;11.57;6.20;;;11.10;99.90;;;;;;6190596;23;20167;-86
2022/10/30 07:22:49;;;;;;;11.47;6.30;;;11.20;99.90;;;;;;6190842;23;20249;-85
2022/10/30 07:25:15;;;;;;;14.73;6.40;;;11.10;99.90;;;;;;6192895;23;20203;-86
2022/10/30 07:27:42;;;;;;;16.20;6.70;;;11.30;99.90;;;;;;6190997;23;20213;-86
2022/10/30 07:30:09;;;;;;;14.00;7.07;;;11.40;99.90;;;;;;6190721;23;20156;-86
2022/10/30 07:32:35;;;;;;;17.60;7.10;;;11.40;99.90;;;;;;6190787;23;20160;-86
2022/10/30 07:35:00;;;;;;;14.77;6.43;;;11.50;99.90;;;;;;6190591;23;20286;-86
2022/10/30 07:37:28;;;;;;;17.40;6.87;;;11.50;99.90;;;;;;6190508;23;20164;-87
2022/10/30 07:39:54;;;;;;;11.73;6.57;;;12.00;99.90;;;;;;6190518;23;20650;-86
2022/10/30 07:42:19;;;;;;;14.23;6.53;;;11.60;99.90;;;;;;6217089;23;20206;-87
2022/10/30 07:44:45;;;;;;;15.47;6.50;;;11.70;99.90;;;;;;6190201;23;20186;-87
2022/10/30 07:47:10;;;;;;;14.30;7.07;;;11.90;99.90;;;;;;6190625;23;20152;-87
2022/10/30 07:49:36;;;;;;;18.60;8.03;;;11.80;99.90;;;;;;6191056;23;20529;-85
2022/10/30 07:52:01;;;;;;;14.97;6.80;;;12.60;99.90;;;;;;6190596;23;20163;-88
2022/10/30 07:54:27;;;;;;;17.90;8.03;;;12.00;99.90;;;;;;6195723;23;20746;-87
2022/10/30 07:56:52;;;;;;;19.73;7.23;;;12.00;99.90;;;;;;6194573;23;20254;-87
2022/10/30 07:59:18;;;;;;;11.87;7.83;;;12.40;99.90;;;;;;6221055;23;20159;-87
2022/10/30 08:01:43;;;;;;;14.23;7.20;;;12.10;99.90;;;;;;6193389;23;20164;-87
2022/10/30 08:04:12;;;;;;;11.70;6.70;;;12.20;99.90;;;;;;6192686;23;20573;-86
2022/10/30 08:06:38;;;;;;;16.93;7.13;;;12.20;99.90;;;;;;6190296;23;20598;-87
2022/10/30 08:09:04;;;;;;;26.23;6.97;;;13.10;99.90;;;;;;6190069;23;20166;-87
2022/10/30 08:11:29;;;;;;;12.23;7.17;;;12.40;99.90;;;;;;6190102;23;20673;-86
2022/10/30 08:13:55;;;;;;;15.10;7.47;;;12.40;99.90;;;;;;6190025;23;20652;-87
2022/10/30 08:16:20;;;;;;;21.30;8.00;;;12.50;99.90;;;;;;6190294;23;20650;-88
2022/10/30 08:18:46;;;;;;;20.13;8.40;;;12.60;99.90;;;;;;6216987;23;20662;-88
2022/10/30 08:21:12;;;;;;;13.83;7.70;;;13.50;99.90;;;;;;6190243;23;20167;-87
2022/10/30 08:23:37;;;;;;;19.03;8.43;;;12.80;99.90;;;;;;6190053;23;20271;-86
2022/10/30 08:26:04;;;;;;;12.90;6.50;;;13.20;99.90;;;;;;6190078;23;20547;-86
2022/10/30 08:28:30;;;;;;;17.03;7.77;;;13.00;99.90;;;;;;6190604;23;20160;-85
2022/10/30 08:30:57;;;;;;;14.63;7.50;;;13.10;99.90;;;;;;6189971;23;20159;-87
2022/10/30 08:33:23;;;;;;;13.83;7.00;;;13.30;99.90;;;;;;6216572;23;20176;-87
2022/10/30 08:35:55;;;;;;;17.27;7.53;;;13.40;99.90;;;;;;6216466;23;20156;-87
2022/10/30 08:38:20;;;;;;;15.20;7.23;;;13.60;99.90;;;;;;6190220;23;20152;-86
2022/10/30 08:40:46;;;;;;;13.53;7.17;;;14.00;99.90;;;;;;6190076;23;20162;-86
2022/10/30 08:43:12;;;;;;;18.80;6.67;;;13.80;99.90;;;;;;6189768;23;20167;-86
2022/10/30 08:45:38;;;;;;;15.30;7.30;;;14.00;99.90;;;;;;6189994;23;20542;-87
2022/10/30 08:48:04;;;;;;;16.47;6.80;;;14.20;99.90;;;;;;6189939;23;20156;-84
2022/10/30 08:50:31;;;;;;;16.47;6.90;;;14.40;99.90;;;;;;6189673;23;20184;-85
2022/10/30 08:53:01;;;;;;;12.73;6.67;;;14.60;99.90;;;;;;6189827;23;20160;-86
2022/10/30 08:55:27;;;;;;;16.23;5.60;;;15.00;99.90;;;;;;6189609;23;20266;-84
2022/10/30 08:57:53;;;;;;;19.73;6.90;;;14.80;99.90;;;;;;6189539;23;20180;-86
2022/10/30 09:00:18;;;;;;;17.93;6.10;;;15.00;99.90;;;;;;6189717;23;20180;-86
2022/10/30 09:02:44;;;;;;;10.90;5.77;;;15.10;99.90;;;;;;6189755;23;20172;-84
2022/10/30 09:05:10;;;;;;;12.23;6.10;;;15.20;99.90;;;;;;6189500;23;20180;-84
2022/10/30 09:07:35;;;;;;;17.23;5.90;;;15.30;99.90;;;;;;6189706;23;20158;-84
2022/10/30 09:10:02;;;;;;;11.20;5.20;;;15.60;99.90;;;;;;6189651;23;20164;-85
2022/10/30 09:12:27;;;;;;;16.87;5.50;;;15.70;99.90;;;;;;6189565;23;20156;-85
2022/10/30 09:14:53;;;;;;;23.47;5.33;;;15.80;99.90;;;;;;6189537;23;20184;-85
2022/10/30 09:17:18;;;;;;;10.70;5.17;;;16.00;99.90;;;;;;6189829;23;20231;-85
2022/10/30 09:19:44;;;;;;;13.43;5.13;;;16.20;99.90;;;;;;6189698;23;20160;-86
2022/10/30 09:22:09;;;;;;;17.60;5.67;;;16.40;99.90;;;;;;6189625;23;20178;-84
2022/10/30 09:24:36;;;;;;;11.00;5.63;;;16.40;99.90;;;;;;6189481;23;20203;-85
2022/10/30 09:27:01;;;;;;;17.20;5.03;;;16.50;99.90;;;;;;6189874;23;20155;-84
2022/10/30 09:29:29;;;;;;;12.23;5.23;;;16.50;99.90;;;;;;6189809;23;20577;-85
2022/10/30 09:31:55;;;;;;;10.67;4.90;;;16.80;99.90;;;;;;6216253;23;20160;-86
2022/10/30 09:34:21;;;;;;;10.57;4.90;;;16.90;99.90;;;;;;6189638;23;20241;-84
2022/10/30 09:36:47;;;;;;;9.30;4.67;;;17.00;99.90;;;;;;6189476;23;20160;-86
2022/10/30 09:39:13;;;;;;;12.00;4.60;;;17.10;99.90;;;;;;6189634;23;20245;-86
2022/10/30 09:41:56;;;;;;;10.60;4.53;;;17.30;99.90;;;;;;6216154;23;20156;-87
2022/10/30 09:44:43;;;;;;;10.53;4.17;;;17.30;99.90;;;;;;6189479;23;20266;-85
2022/10/30 09:47:36;;;;;;;9.57;3.90;;;17.40;99.90;;;;;;6189673;23;20152;-85
2022/10/30 09:50:17;;;;;;;16.50;4.40;;;17.50;99.90;;;;;;6189650;23;20172;-85
2022/10/30 09:53:11;;;;;;;13.87;4.13;;;17.60;99.90;;;;;;6189408;23;20187;-85
2022/10/30 09:55:48;;;;;;;14.03;5.00;;;17.80;99.90;;;;;;6190818;23;20163;-86
2022/10/30 09:58:47;;;;;;;10.23;4.13;;;17.80;99.90;;;;;;6191426;23;20231;-85
2022/10/30 10:01:34;;;;;;;12.53;4.33;;;17.90;99.90;;;;;;6189443;23;20148;-85
2022/10/30 10:04:24;;;;;;;10.00;4.40;;;18.10;99.90;;;;;;6189366;23;20199;-84
2022/10/30 10:06:55;;;;;;;9.93;3.93;;;18.10;99.90;;;;;;6189494;23;20159;-85
2022/10/30 10:09:24;;;;;;;9.80;4.73;;;18.20;99.90;;;;;;6190043;23;20587;-85
2022/10/30 10:12:01;;;;;;;13.40;4.90;;;18.40;99.90;;;;;;6191079;23;20164;-84
2022/10/30 10:14:31;;;;;;;16.80;5.03;;;18.50;99.90;;;;;;6217775;23;20625;-84
2022/10/30 10:17:01;;;;;;;8.53;4.17;;;18.60;99.90;;;;;;6191156;23;20160;-84
2022/10/30 10:19:56;;;;;;;12.33;4.40;;;18.70;99.90;;;;;;6191743;23;20216;-83
2022/10/30 10:23:03;;;;;;;13.03;4.40;;;18.80;99.90;;;;;;6191007;23;20160;-85
2022/10/30 10:25:30;;;;;;;12.13;4.53;;;18.90;99.90;;;;;;6043715;23;20258;-86
2022/10/30 10:28:03;;;;;;;10.47;4.30;;;18.90;99.90;;;;;;6044085;23;20239;-85
2022/10/30 10:30:40;;;;;;;9.90;4.33;;;19.00;99.90;;;;;;6108383;23;20165;-84
2022/10/30 10:33:34;;;;;;;15.73;4.27;;;19.00;99.90;;;;;;6161349;23;20157;-85
2022/10/30 10:36:32;;;;;;;12.83;3.87;;;19.20;99.90;;;;;;6161353;23;20157;-86
2022/10/30 10:39:10;;;;;;;10.70;4.10;;;19.30;99.90;;;;;;6162022;23;20618;-83
2022/10/30 10:42:03;;;;;;;13.60;3.90;;;19.50;99.90;;;;;;6161183;23;20191;-86
2022/10/30 10:44:54;;;;;;;10.30;4.30;;;19.50;99.90;;;;;;6161041;23;20563;-86
2022/10/30 10:47:31;;;;;;;11.03;4.03;;;19.70;99.90;;;;;;6187937;23;20165;-84
2022/10/30 10:50:24;;;;;;;9.07;4.00;;;19.80;99.90;;;;;;6161174;23;20145;-86
2022/10/30 10:53:02;;;;;;;8.53;4.20;;;19.80;99.90;;;;;;6160989;23;20157;-85
2022/10/30 10:55:32;;;;;;;9.43;3.90;;;19.90;99.90;;;;;;6160925;23;20190;-86
2022/10/30 10:58:13;;;;;;;9.00;3.60;;;20.00;99.90;;;;;;6161183;23;20607;-85
2022/10/30 11:00:39;;;;;;;9.30;3.67;;;20.10;99.90;;;;;;6161123;23;20495;-86
2022/10/30 11:03:18;;;;;;;13.27;3.90;;;20.10;99.90;;;;;;6160962;23;20208;-86
2022/10/30 11:05:58;;;;;;;10.13;3.87;;;20.30;99.90;;;;;;6161066;23;20165;-85
2022/10/30 11:08:27;;;;;;;8.27;4.00;;;20.40;99.90;;;;;;6161101;23;20631;-85
2022/10/30 11:10:58;;;;;;;8.60;3.67;;;20.40;99.90;;;;;;6185796;23;20161;-85
2022/10/30 11:13:27;;;;;;;11.67;3.97;;;20.50;99.90;;;;;;6160795;23;20191;-85
2022/10/30 11:16:35;;;;;;;11.17;3.57;;;20.60;99.90;;;;;;6160973;23;20236;-83
2022/10/30 11:19:03;;;;;;;14.33;3.93;;;20.70;99.90;;;;;;6187346;23;20137;-84
2022/10/30 11:21:37;;;;;;;11.70;3.90;;;20.70;99.90;;;;;;6187056;23;20146;-85
2022/10/30 11:24:04;;;;;;;12.17;4.37;;;20.90;99.90;;;;;;6160837;23;20713;-84
2022/10/30 11:26:32;;;;;;;11.23;3.73;;;21.00;99.90;;;;;;6160667;23;20177;-85
2022/10/30 11:29:02;;;;;;;10.93;3.77;;;21.00;99.90;;;;;;6161014;23;20161;-84
2022/10/30 11:31:39;;;;;;;13.97;3.33;;;21.10;99.90;;;;;;6187445;23;20141;-85
2022/10/30 11:34:30;;;;;;;12.37;4.20;;;21.20;99.90;;;;;;6161088;23;20635;-84
2022/10/30 11:36:55;;;;;;;16.37;4.37;;;21.30;99.90;;;;;;6160525;23;20160;-86
2022/10/30 11:39:30;;;;;;;12.40;3.97;;;21.30;99.90;;;;;;6160890;23;20216;-87
2022/10/30 11:42:12;;;;;;;8.50;3.50;;;21.40;99.90;;;;;;6160857;23;20210;-85
2022/10/30 11:44:48;;;;;;;13.00;4.43;;;21.40;99.90;;;;;;6160656;23;20498;-86
2022/10/30 11:47:15;;;;;;;13.80;3.93;;;21.40;99.90;;;;;;6160832;23;20157;-86
2022/10/30 11:49:52;;;;;;;9.33;3.83;;;21.50;99.90;;;;;;6160618;23;20189;-85
2022/10/30 11:52:21;;;;;;;11.47;4.40;;;21.50;99.90;;;;;;6160647;23;20145;-85
2022/10/30 11:54:57;;;;;;;11.10;4.20;;;21.60;99.90;;;;;;6160562;23;20181;-83
2022/10/30 11:57:27;;;;;;;20.53;4.07;;;21.60;99.90;;;;;;6160656;23;20157;-84
2022/10/30 11:59:55;;;;;;;9.60;3.37;;;21.70;99.90;;;;;;6160563;23;20160;-86
2022/10/30 12:02:28;;;;;;;12.50;3.90;;;21.70;99.90;;;;;;6186905;23;20157;-85
2022/10/30 12:04:59;;;;;;;15.10;4.80;;;21.80;99.90;;;;;;6161147;23;20627;-85
2022/10/30 12:07:28;;;;;;;13.47;4.50;;;21.70;99.90;;;;;;6160759;23;20153;-86
2022/10/30 12:09:56;;;;;;;14.53;3.80;;;21.80;99.90;;;;;;6160421;23;20153;-85
2022/10/30 12:12:33;;;;;;;8.67;3.63;;;21.90;99.90;;;;;;6160318;23;20160;-86
2022/10/30 12:15:13;;;;;;;13.10;4.07;;;21.90;99.90;;;;;;6160371;23;20180;-84
2022/10/30 12:17:40;;;;;;;10.80;4.00;;;22.00;99.90;;;;;;6160387;23;20164;-85
2022/10/30 12:20:12;;;;;;;10.43;3.70;;;22.10;99.90;;;;;;6160424;23;20161;-85
2022/10/30 12:22:38;;;;;;;15.47;3.73;;;22.20;99.90;;;;;;6160302;23;20176;-86
2022/10/30 12:25:14;;;;;;;12.73;4.20;;;22.30;99.90;;;;;;6165698;23;20197;-84
2022/10/30 12:27:40;;;;;;;13.67;3.97;;;22.30;99.90;;;;;;6210333;23;20161;-83
2022/10/30 12:30:15;;;;;;;13.17;4.50;;;22.40;99.90;;;;;;6185343;23;20165;-86
2022/10/30 12:32:59;;;;;;;7.10;3.47;;;22.50;99.90;;;;;;6184800;23;20702;-86
2022/10/30 12:35:50;;;;;;;15.70;4.10;;;22.50;99.90;;;;;;6184828;23;20528;-85
2022/10/30 12:38:45;;;;;;;10.57;3.83;;;22.50;99.90;;;;;;6185314;23;20164;-84
2022/10/30 12:41:17;;;;;;;17.53;4.00;;;22.60;99.90;;;;;;6180283;23;20197;-85
2022/10/30 12:43:58;;;;;;;14.77;4.40;;;22.50;99.90;;;;;;6184887;23;20678;-84
2022/10/30 12:46:47;;;;;;;11.10;4.07;;;22.60;99.90;;;;;;6210227;23;20149;-85
2022/10/30 12:49:15;;;;;;;9.53;4.17;;;22.60;99.90;;;;;;6185184;23;20145;-86
2022/10/30 12:51:47;;;;;;;13.67;4.07;;;22.70;99.90;;;;;;6210121;23;20161;-84